Аэропорт: Нахичевань. Нахичевань

ICAO: UBBN

METAR:
2021-10-23 02:30:00
UBBN 230230Z 02006KT 9999 NSC 02/M04 Q1021 R88/CLRD// NOSIG RMK MT OP QFE691
METAR:
2021-10-22 22:58:00
TAF UBBN 222258Z 2300/2324 VRB04KT 9999 FEW050 SCT100 TX23/2312Z TN03/2303Z TEMPO 2300/2306 02006KT